sensor_id;sensor_type;location;lat;lon;timestamp;P1;durP1;ratioP1;P2;durP2;ratioP2
7747;SDS011;3918;42.564;23.164;2022-11-10T06:03:13;341.25;;;24.65;;
7747;SDS011;3918;42.564;23.164;2022-11-10T06:05:41;288.10;;;21.63;;
7747;SDS011;3918;42.564;23.164;2022-11-10T06:08:08;355.70;;;21.65;;
7747;SDS011;3918;42.564;23.164;2022-11-10T06:10:36;214.60;;;18.05;;
7747;SDS011;3918;42.564;23.164;2022-11-10T06:13:03;178.57;;;17.95;;
7747;SDS011;3918;42.564;23.164;2022-11-10T06:15:30;169.77;;;17.25;;
7747;SDS011;3918;42.564;23.164;2022-11-10T06:17:58;79.10;;;14.30;;
7747;SDS011;3918;42.564;23.164;2022-11-10T06:20:26;23.15;;;12.68;;
7747;SDS011;3918;42.564;23.164;2022-11-10T06:22:57;20.33;;;13.50;;
7747;SDS011;3918;42.564;23.164;2022-11-10T06:25:25;16.25;;;12.85;;
7747;SDS011;3918;42.564;23.164;2022-11-10T06:27:53;14.77;;;13.27;;
7747;SDS011;3918;42.564;23.164;2022-11-10T06:30:21;18.85;;;14.27;;
7747;SDS011;3918;42.564;23.164;2022-11-10T06:32:48;16.38;;;12.77;;
7747;SDS011;3918;42.564;23.164;2022-11-10T06:35:15;32.50;;;12.93;;
7747;SDS011;3918;42.564;23.164;2022-11-10T06:37:43;34.53;;;12.13;;
7747;SDS011;3918;42.564;23.164;2022-11-10T06:40:10;66.78;;;13.00;;
7747;SDS011;3918;42.564;23.164;2022-11-10T06:42:38;135.50;;;13.90;;
7747;SDS011;3918;42.564;23.164;2022-11-10T06:45:05;121.53;;;13.18;;
7747;SDS011;3918;42.564;23.164;2022-11-10T06:47:33;440.70;;;21.67;;
7747;SDS011;3918;42.564;23.164;2022-11-10T06:50:00;222.25;;;35.97;;
7747;SDS011;3918;42.564;23.164;2022-11-10T06:52:26;104.85;;;19.60;;
7747;SDS011;3918;42.564;23.164;2022-11-10T06:54:57;17.48;;;14.50;;
7747;SDS011;3918;42.564;23.164;2022-11-10T06:57:23;29.42;;;13.25;;
7747;SDS011;3918;42.564;23.164;2022-11-10T06:59:50;22.40;;;12.48;;
7747;SDS011;3918;42.564;23.164;2022-11-10T07:02:17;46.47;;;13.13;;
7747;SDS011;3918;42.564;23.164;2022-11-10T07:04:44;306.30;;;19.23;;
7747;SDS011;3918;42.564;23.164;2022-11-10T07:07:10;253.75;;;17.55;;
7747;SDS011;3918;42.564;23.164;2022-11-10T07:09:38;248.18;;;19.08;;
7747;SDS011;3918;42.564;23.164;2022-11-10T07:12:06;419.48;;;27.63;;
7747;SDS011;3918;42.564;23.164;2022-11-10T07:14:33;425.88;;;23.25;;
7747;SDS011;3918;42.564;23.164;2022-11-10T07:17:00;128.50;;;15.90;;
7747;SDS011;3918;42.564;23.164;2022-11-10T07:19:26;222.95;;;16.88;;
7747;SDS011;3918;42.564;23.164;2022-11-10T07:21:53;269.10;;;18.75;;
7747;SDS011;3918;42.564;23.164;2022-11-10T07:24:20;316.15;;;20.55;;
7747;SDS011;3918;42.564;23.164;2022-11-10T07:26:47;178.93;;;15.63;;
7747;SDS011;3918;42.564;23.164;2022-11-10T07:29:15;180.88;;;16.45;;
7747;SDS011;3918;42.564;23.164;2022-11-10T07:31:42;106.07;;;15.57;;
7747;SDS011;3918;42.564;23.164;2022-11-10T07:34:08;178.43;;;16.90;;
7747;SDS011;3918;42.564;23.164;2022-11-10T07:36:35;138.68;;;16.38;;
7747;SDS011;3918;42.564;23.164;2022-11-10T07:39:02;162.80;;;16.98;;
7747;SDS011;3918;42.564;23.164;2022-11-10T07:41:29;152.90;;;15.30;;
7747;SDS011;3918;42.564;23.164;2022-11-10T07:43:56;54.67;;;13.63;;
7747;SDS011;3918;42.564;23.164;2022-11-10T07:46:24;58.30;;;15.43;;
7747;SDS011;3918;42.564;23.164;2022-11-10T07:48:51;40.00;;;15.63;;
7747;SDS011;3918;42.564;23.164;2022-11-10T07:51:18;149.40;;;16.85;;
7747;SDS011;3918;42.564;23.164;2022-11-10T07:53:44;245.55;;;20.23;;
7747;SDS011;3918;42.564;23.164;2022-11-10T07:56:11;91.53;;;16.77;;
7747;SDS011;3918;42.564;23.164;2022-11-10T07:58:38;128.43;;;16.73;;
7747;SDS011;3918;42.564;23.164;2022-11-10T08:01:05;141.88;;;16.95;;
7747;SDS011;3918;42.564;23.164;2022-11-10T08:03:33;106.30;;;17.15;;
7747;SDS011;3918;42.564;23.164;2022-11-10T08:06:00;80.93;;;15.30;;
7747;SDS011;3918;42.564;23.164;2022-11-10T08:08:27;631.25;;;53.72;;
7747;SDS011;3918;42.564;23.164;2022-11-10T08:10:55;158.57;;;23.05;;
7747;SDS011;3918;42.564;23.164;2022-11-10T08:13:23;62.10;;;15.73;;
7747;SDS011;3918;42.564;23.164;2022-11-10T08:15:49;244.23;;;23.00;;
7747;SDS011;3918;42.564;23.164;2022-11-10T08:18:17;362.80;;;23.95;;
7747;SDS011;3918;42.564;23.164;2022-11-10T08:20:47;200.93;;;20.30;;
7747;SDS011;3918;42.564;23.164;2022-11-10T08:23:14;193.07;;;19.60;;
7747;SDS011;3918;42.564;23.164;2022-11-10T08:25:41;156.23;;;20.17;;
7747;SDS011;3918;42.564;23.164;2022-11-10T08:28:09;113.82;;;19.35;;
7747;SDS011;3918;42.564;23.164;2022-11-10T08:30:38;487.73;;;28.10;;
7747;SDS011;3918;42.564;23.164;2022-11-10T08:33:08;79.28;;;18.25;;
7747;SDS011;3918;42.564;23.164;2022-11-10T08:35:36;114.90;;;19.90;;
7747;SDS011;3918;42.564;23.164;2022-11-10T08:38:06;426.15;;;26.73;;
7747;SDS011;3918;42.564;23.164;2022-11-10T08:40:33;114.15;;;19.48;;
7747;SDS011;3918;42.564;23.164;2022-11-10T08:43:01;193.05;;;20.70;;
7747;SDS011;3918;42.564;23.164;2022-11-10T08:45:31;107.13;;;20.00;;
7747;SDS011;3918;42.564;23.164;2022-11-10T08:47:59;256.02;;;18.45;;
7747;SDS011;3918;42.564;23.164;2022-11-10T08:50:27;279.83;;;22.63;;
7747;SDS011;3918;42.564;23.164;2022-11-10T08:52:54;266.52;;;22.50;;
7747;SDS011;3918;42.564;23.164;2022-11-10T08:55:22;222.93;;;22.85;;
7747;SDS011;3918;42.564;23.164;2022-11-10T08:57:49;106.15;;;20.05;;
7747;SDS011;3918;42.564;23.164;2022-11-10T09:00:16;37.15;;;17.85;;
7747;SDS011;3918;42.564;23.164;2022-11-10T09:02:43;47.58;;;19.02;;
7747;SDS011;3918;42.564;23.164;2022-11-10T09:05:10;40.70;;;19.70;;
7747;SDS011;3918;42.564;23.164;2022-11-10T09:07:43;40.60;;;20.23;;
7747;SDS011;3918;42.564;23.164;2022-11-10T09:10:11;30.40;;;17.27;;
7747;SDS011;3918;42.564;23.164;2022-11-10T09:12:39;37.42;;;19.90;;
7747;SDS011;3918;42.564;23.164;2022-11-10T09:15:07;45.22;;;18.92;;
7747;SDS011;3918;42.564;23.164;2022-11-10T09:17:35;31.88;;;18.05;;
7747;SDS011;3918;42.564;23.164;2022-11-10T09:20:02;35.88;;;18.08;;
7747;SDS011;3918;42.564;23.164;2022-11-10T09:22:30;47.67;;;19.90;;
7747;SDS011;3918;42.564;23.164;2022-11-10T09:24:56;48.00;;;19.05;;
7747;SDS011;3918;42.564;23.164;2022-11-10T09:27:23;128.00;;;21.60;;
7747;SDS011;3918;42.564;23.164;2022-11-10T09:29:51;33.30;;;19.65;;
7747;SDS011;3918;42.564;23.164;2022-11-10T09:32:18;38.55;;;18.98;;
7747;SDS011;3918;42.564;23.164;2022-11-10T09:34:45;35.13;;;18.65;;
7747;SDS011;3918;42.564;23.164;2022-11-10T09:37:11;36.65;;;19.10;;
7747;SDS011;3918;42.564;23.164;2022-11-10T09:39:38;32.72;;;18.55;;
7747;SDS011;3918;42.564;23.164;2022-11-10T09:42:12;30.65;;;18.63;;
7747;SDS011;3918;42.564;23.164;2022-11-10T09:44:53;33.10;;;17.35;;
7747;SDS011;3918;42.564;23.164;2022-11-10T09:47:25;31.73;;;18.85;;
7747;SDS011;3918;42.564;23.164;2022-11-10T09:49:59;32.70;;;17.25;;
7747;SDS011;3918;42.564;23.164;2022-11-10T09:52:28;33.58;;;18.00;;
7747;SDS011;3918;42.564;23.164;2022-11-10T09:54:59;34.75;;;17.90;;
7747;SDS011;3918;42.564;23.164;2022-11-10T09:57:32;30.85;;;17.67;;
7747;SDS011;3918;42.564;23.164;2022-11-10T10:00:00;30.88;;;18.70;;
7747;SDS011;3918;42.564;23.164;2022-11-10T10:02:30;33.90;;;19.45;;
7747;SDS011;3918;42.564;23.164;2022-11-10T10:05:24;37.73;;;22.53;;
7747;SDS011;3918;42.564;23.164;2022-11-10T10:07:59;46.10;;;21.50;;
7747;SDS011;3918;42.564;23.164;2022-11-10T10:10:30;45.88;;;20.20;;
7747;SDS011;3918;42.564;23.164;2022-11-10T10:15:58;33.92;;;19.10;;
7747;SDS011;3918;42.564;23.164;2022-11-10T10:18:36;35.33;;;18.92;;
7747;SDS011;3918;42.564;23.164;2022-11-10T10:21:15;35.63;;;18.42;;
7747;SDS011;3918;42.564;23.164;2022-11-10T10:23:56;38.28;;;20.10;;
7747;SDS011;3918;42.564;23.164;2022-11-10T10:26:26;47.47;;;19.73;;
7747;SDS011;3918;42.564;23.164;2022-11-10T10:28:56;37.22;;;20.42;;
7747;SDS011;3918;42.564;23.164;2022-11-10T10:31:38;33.20;;;18.52;;
7747;SDS011;3918;42.564;23.164;2022-11-10T10:34:11;33.10;;;17.65;;
7747;SDS011;3918;42.564;23.164;2022-11-10T10:36:40;30.33;;;16.95;;
7747;SDS011;3918;42.564;23.164;2022-11-10T10:39:09;31.65;;;17.35;;
7747;SDS011;3918;42.564;23.164;2022-11-10T10:41:39;31.13;;;16.80;;
7747;SDS011;3918;42.564;23.164;2022-11-10T10:44:10;30.65;;;16.67;;
7747;SDS011;3918;42.564;23.164;2022-11-10T10:46:43;33.42;;;18.65;;
7747;SDS011;3918;42.564;23.164;2022-11-10T10:49:13;32.00;;;17.88;;
7747;SDS011;3918;42.564;23.164;2022-11-10T10:51:42;26.25;;;16.52;;
7747;SDS011;3918;42.564;23.164;2022-11-10T10:54:23;26.65;;;17.20;;
7747;SDS011;3918;42.564;23.164;2022-11-10T10:57:00;38.25;;;18.10;;
7747;SDS011;3918;42.564;23.164;2022-11-10T10:59:31;27.05;;;16.55;;
7747;SDS011;3918;42.564;23.164;2022-11-10T11:02:00;35.10;;;15.93;;
7747;SDS011;3918;42.564;23.164;2022-11-10T11:04:28;31.33;;;15.82;;
7747;SDS011;3918;42.564;23.164;2022-11-10T11:06:59;35.38;;;16.77;;
7747;SDS011;3918;42.564;23.164;2022-11-10T11:09:28;29.27;;;14.73;;
7747;SDS011;3918;42.564;23.164;2022-11-10T11:12:04;21.45;;;14.18;;
7747;SDS011;3918;42.564;23.164;2022-11-10T11:14:32;21.80;;;13.30;;
7747;SDS011;3918;42.564;23.164;2022-11-10T11:17:02;22.48;;;13.43;;
7747;SDS011;3918;42.564;23.164;2022-11-10T11:19:37;21.00;;;13.43;;
7747;SDS011;3918;42.564;23.164;2022-11-10T11:22:25;24.48;;;14.68;;
7747;SDS011;3918;42.564;23.164;2022-11-10T11:25:09;24.90;;;14.20;;
7747;SDS011;3918;42.564;23.164;2022-11-10T11:27:45;23.73;;;13.45;;
7747;SDS011;3918;42.564;23.164;2022-11-10T11:30:19;23.90;;;14.63;;
7747;SDS011;3918;42.564;23.164;2022-11-10T11:33:08;32.70;;;16.63;;
7747;SDS011;3918;42.564;23.164;2022-11-10T11:35:46;34.28;;;18.80;;
7747;SDS011;3918;42.564;23.164;2022-11-10T11:38:27;33.20;;;18.58;;
7747;SDS011;3918;42.564;23.164;2022-11-10T11:40:58;32.75;;;18.40;;
7747;SDS011;3918;42.564;23.164;2022-11-10T11:43:51;36.45;;;18.17;;
7747;SDS011;3918;42.564;23.164;2022-11-10T11:46:33;32.53;;;17.88;;
7747;SDS011;3918;42.564;23.164;2022-11-10T11:52:01;42.53;;;20.95;;
7747;SDS011;3918;42.564;23.164;2022-11-10T11:54:40;38.13;;;19.10;;
7747;SDS011;3918;42.564;23.164;2022-11-10T11:57:20;40.90;;;21.50;;
7747;SDS011;3918;42.564;23.164;2022-11-10T11:59:58;46.85;;;21.05;;
7747;SDS011;3918;42.564;23.164;2022-11-10T12:02:53;41.97;;;20.27;;
7747;SDS011;3918;42.564;23.164;2022-11-10T12:05:36;38.28;;;21.95;;
7747;SDS011;3918;42.564;23.164;2022-11-10T12:08:20;43.95;;;20.38;;
7747;SDS011;3918;42.564;23.164;2022-11-10T12:10:56;42.92;;;20.75;;
7747;SDS011;3918;42.564;23.164;2022-11-10T12:13:33;53.60;;;20.85;;
7747;SDS011;3918;42.564;23.164;2022-11-10T12:16:04;43.55;;;22.38;;
7747;SDS011;3918;42.564;23.164;2022-11-10T12:18:40;59.30;;;23.65;;
7747;SDS011;3918;42.564;23.164;2022-11-10T12:21:28;66.72;;;22.88;;
7747;SDS011;3918;42.564;23.164;2022-11-10T12:24:08;50.38;;;22.23;;
7747;SDS011;3918;42.564;23.164;2022-11-10T12:26:46;52.45;;;22.02;;
7747;SDS011;3918;42.564;23.164;2022-11-10T12:29:19;62.90;;;24.90;;
7747;SDS011;3918;42.564;23.164;2022-11-10T12:31:53;55.97;;;25.08;;
7747;SDS011;3918;42.564;23.164;2022-11-10T12:34:27;55.13;;;23.63;;
7747;SDS011;3918;42.564;23.164;2022-11-10T12:37:00;60.75;;;24.55;;
7747;SDS011;3918;42.564;23.164;2022-11-10T12:39:34;57.65;;;25.67;;
7747;SDS011;3918;42.564;23.164;2022-11-10T12:42:10;49.83;;;23.88;;
7747;SDS011;3918;42.564;23.164;2022-11-10T12:44:46;51.50;;;23.98;;
7747;SDS011;3918;42.564;23.164;2022-11-10T12:47:21;55.35;;;24.77;;
7747;SDS011;3918;42.564;23.164;2022-11-10T12:49:52;52.40;;;22.30;;
7747;SDS011;3918;42.564;23.164;2022-11-10T12:52:31;59.10;;;23.67;;
7747;SDS011;3918;42.564;23.164;2022-11-10T12:55:01;53.75;;;22.90;;
7747;SDS011;3918;42.564;23.164;2022-11-10T12:57:27;56.15;;;22.83;;
7747;SDS011;3918;42.564;23.164;2022-11-10T12:59:58;45.42;;;21.67;;
7747;SDS011;3918;42.564;23.164;2022-11-10T13:02:29;60.97;;;23.23;;
7747;SDS011;3918;42.564;23.164;2022-11-10T13:08:10;47.58;;;21.38;;
7747;SDS011;3918;42.564;23.164;2022-11-10T13:10:50;50.85;;;23.83;;
7747;SDS011;3918;42.564;23.164;2022-11-10T13:13:18;43.28;;;22.33;;
7747;SDS011;3918;42.564;23.164;2022-11-10T13:15:51;50.78;;;22.60;;
7747;SDS011;3918;42.564;23.164;2022-11-10T13:24:21;50.45;;;22.05;;
7747;SDS011;3918;42.564;23.164;2022-11-10T13:26:50;59.72;;;23.42;;
7747;SDS011;3918;42.564;23.164;2022-11-10T13:29:25;56.65;;;23.90;;
7747;SDS011;3918;42.564;23.164;2022-11-10T13:31:56;66.68;;;24.10;;
7747;SDS011;3918;42.564;23.164;2022-11-10T13:34:30;55.58;;;21.27;;
7747;SDS011;3918;42.564;23.164;2022-11-10T13:36:58;48.05;;;23.02;;
7747;SDS011;3918;42.564;23.164;2022-11-10T13:39:31;44.70;;;23.27;;
7747;SDS011;3918;42.564;23.164;2022-11-10T13:41:59;57.70;;;27.17;;
7747;SDS011;3918;42.564;23.164;2022-11-10T13:44:28;54.47;;;23.52;;
7747;SDS011;3918;42.564;23.164;2022-11-10T13:47:18;48.58;;;23.90;;
7747;SDS011;3918;42.564;23.164;2022-11-10T13:50:05;48.72;;;22.52;;
7747;SDS011;3918;42.564;23.164;2022-11-10T13:52:47;51.78;;;24.40;;
7747;SDS011;3918;42.564;23.164;2022-11-10T13:55:33;46.92;;;23.17;;
7747;SDS011;3918;42.564;23.164;2022-11-10T13:58:23;62.53;;;23.95;;
7747;SDS011;3918;42.564;23.164;2022-11-10T14:03:52;55.63;;;24.85;;
7747;SDS011;3918;42.564;23.164;2022-11-10T14:06:21;53.38;;;24.58;;
7747;SDS011;3918;42.564;23.164;2022-11-10T14:08:52;66.20;;;28.90;;
7747;SDS011;3918;42.564;23.164;2022-11-10T14:11:25;53.95;;;25.98;;
7747;SDS011;3918;42.564;23.164;2022-11-10T14:13:57;45.83;;;23.95;;
7747;SDS011;3918;42.564;23.164;2022-11-10T14:16:27;47.97;;;23.90;;
7747;SDS011;3918;42.564;23.164;2022-11-10T14:18:58;59.70;;;27.73;;
7747;SDS011;3918;42.564;23.164;2022-11-10T14:21:31;86.22;;;28.10;;
7747;SDS011;3918;42.564;23.164;2022-11-10T14:24:06;52.88;;;23.98;;
7747;SDS011;3918;42.564;23.164;2022-11-10T14:26:40;62.25;;;24.52;;
7747;SDS011;3918;42.564;23.164;2022-11-10T14:29:19;58.22;;;24.30;;
7747;SDS011;3918;42.564;23.164;2022-11-10T14:31:51;59.28;;;25.80;;
7747;SDS011;3918;42.564;23.164;2022-11-10T14:34:18;56.72;;;24.35;;
7747;SDS011;3918;42.564;23.164;2022-11-10T14:36:51;55.40;;;24.55;;
7747;SDS011;3918;42.564;23.164;2022-11-10T14:39:20;56.75;;;24.38;;
7747;SDS011;3918;42.564;23.164;2022-11-10T14:41:53;63.83;;;25.88;;
7747;SDS011;3918;42.564;23.164;2022-11-10T14:44:21;45.97;;;24.27;;
7747;SDS011;3918;42.564;23.164;2022-11-10T14:46:50;52.15;;;25.25;;
7747;SDS011;3918;42.564;23.164;2022-11-10T14:49:21;59.22;;;24.30;;
7747;SDS011;3918;42.564;23.164;2022-11-10T14:51:49;55.90;;;25.20;;
7747;SDS011;3918;42.564;23.164;2022-11-10T14:54:20;56.58;;;28.20;;
7747;SDS011;3918;42.564;23.164;2022-11-10T14:56:50;55.17;;;25.30;;
7747;SDS011;3918;42.564;23.164;2022-11-10T14:59:19;63.03;;;25.17;;
7747;SDS011;3918;42.564;23.164;2022-11-10T15:01:48;62.83;;;27.48;;
7747;SDS011;3918;42.564;23.164;2022-11-10T15:04:21;58.85;;;23.85;;
7747;SDS011;3918;42.564;23.164;2022-11-10T15:06:52;52.92;;;27.27;;
7747;SDS011;3918;42.564;23.164;2022-11-10T15:09:24;56.80;;;27.27;;
7747;SDS011;3918;42.564;23.164;2022-11-10T15:11:53;51.53;;;27.52;;
7747;SDS011;3918;42.564;23.164;2022-11-10T15:14:37;60.55;;;27.67;;
7747;SDS011;3918;42.564;23.164;2022-11-10T15:17:06;71.45;;;29.50;;
7747;SDS011;3918;42.564;23.164;2022-11-10T15:19:35;56.85;;;26.83;;
7747;SDS011;3918;42.564;23.164;2022-11-10T15:22:04;71.85;;;28.88;;
7747;SDS011;3918;42.564;23.164;2022-11-10T15:24:32;69.43;;;28.02;;
7747;SDS011;3918;42.564;23.164;2022-11-10T15:26:59;69.97;;;27.80;;
7747;SDS011;3918;42.564;23.164;2022-11-10T15:29:26;69.18;;;27.90;;
7747;SDS011;3918;42.564;23.164;2022-11-10T15:31:56;66.15;;;28.02;;
7747;SDS011;3918;42.564;23.164;2022-11-10T15:34:27;77.95;;;29.73;;
7747;SDS011;3918;42.564;23.164;2022-11-10T15:39:46;73.95;;;30.00;;
7747;SDS011;3918;42.564;23.164;2022-11-10T15:42:14;71.05;;;29.23;;
7747;SDS011;3918;42.564;23.164;2022-11-10T15:44:43;95.53;;;36.22;;
7747;SDS011;3918;42.564;23.164;2022-11-10T15:47:14;78.70;;;33.33;;
7747;SDS011;3918;42.564;23.164;2022-11-10T15:49:43;84.60;;;34.78;;
7747;SDS011;3918;42.564;23.164;2022-11-10T15:52:11;88.25;;;36.50;;
7747;SDS011;3918;42.564;23.164;2022-11-10T15:54:41;78.65;;;34.45;;
7747;SDS011;3918;42.564;23.164;2022-11-10T15:57:09;81.25;;;33.58;;
7747;SDS011;3918;42.564;23.164;2022-11-10T15:59:37;76.18;;;32.35;;
7747;SDS011;3918;42.564;23.164;2022-11-10T16:02:08;64.60;;;31.70;;
7747;SDS011;3918;42.564;23.164;2022-11-10T16:04:43;84.57;;;33.25;;
7747;SDS011;3918;42.564;23.164;2022-11-10T16:07:09;83.35;;;32.70;;
7747;SDS011;3918;42.564;23.164;2022-11-10T16:09:36;90.20;;;37.38;;
7747;SDS011;3918;42.564;23.164;2022-11-10T16:12:03;101.03;;;38.03;;
7747;SDS011;3918;42.564;23.164;2022-11-10T16:14:30;80.55;;;36.00;;
7747;SDS011;3918;42.564;23.164;2022-11-10T16:16:57;102.97;;;43.80;;
7747;SDS011;3918;42.564;23.164;2022-11-10T16:19:24;95.35;;;40.08;;
7747;SDS011;3918;42.564;23.164;2022-11-10T16:21:52;94.13;;;41.88;;
7747;SDS011;3918;42.564;23.164;2022-11-10T16:24:19;83.75;;;39.42;;
7747;SDS011;3918;42.564;23.164;2022-11-10T16:26:45;94.30;;;40.83;;
7747;SDS011;3918;42.564;23.164;2022-11-10T16:29:12;96.97;;;40.88;;
7747;SDS011;3918;42.564;23.164;2022-11-10T16:31:43;89.40;;;40.00;;
7747;SDS011;3918;42.564;23.164;2022-11-10T16:34:11;102.20;;;41.22;;
7747;SDS011;3918;42.564;23.164;2022-11-10T16:36:39;90.00;;;42.17;;
7747;SDS011;3918;42.564;23.164;2022-11-10T16:39:10;104.82;;;41.03;;
7747;SDS011;3918;42.564;23.164;2022-11-10T16:41:38;85.32;;;37.13;;
7747;SDS011;3918;42.564;23.164;2022-11-10T16:44:07;89.90;;;36.13;;
7747;SDS011;3918;42.564;23.164;2022-11-10T16:46:37;71.20;;;32.42;;
7747;SDS011;3918;42.564;23.164;2022-11-10T16:49:05;62.10;;;31.85;;
7747;SDS011;3918;42.564;23.164;2022-11-10T16:51:43;92.28;;;46.55;;
7747;SDS011;3918;42.564;23.164;2022-11-10T16:54:11;106.72;;;40.17;;
7747;SDS011;3918;42.564;23.164;2022-11-10T16:56:38;95.65;;;44.25;;
7747;SDS011;3918;42.564;23.164;2022-11-10T16:59:05;86.88;;;40.97;;
7747;SDS011;3918;42.564;23.164;2022-11-10T17:01:33;90.38;;;40.60;;
7747;SDS011;3918;42.564;23.164;2022-11-10T17:04:04;101.97;;;44.35;;
7747;SDS011;3918;42.564;23.164;2022-11-10T17:06:33;86.72;;;41.22;;
7747;SDS011;3918;42.564;23.164;2022-11-10T17:09:00;88.60;;;40.58;;
7747;SDS011;3918;42.564;23.164;2022-11-10T17:11:33;77.38;;;34.50;;
7747;SDS011;3918;42.564;23.164;2022-11-10T17:14:00;105.25;;;44.83;;
7747;SDS011;3918;42.564;23.164;2022-11-10T17:16:27;79.03;;;38.10;;
7747;SDS011;3918;42.564;23.164;2022-11-10T17:18:56;82.57;;;39.50;;
7747;SDS011;3918;42.564;23.164;2022-11-10T17:21:25;84.22;;;39.83;;
7747;SDS011;3918;42.564;23.164;2022-11-10T17:23:53;92.18;;;39.40;;
7747;SDS011;3918;42.564;23.164;2022-11-10T17:26:20;77.63;;;37.80;;
7747;SDS011;3918;42.564;23.164;2022-11-10T17:28:49;73.63;;;36.33;;
7747;SDS011;3918;42.564;23.164;2022-11-10T17:31:16;65.50;;;32.50;;
7747;SDS011;3918;42.564;23.164;2022-11-10T17:33:42;68.43;;;31.73;;
7747;SDS011;3918;42.564;23.164;2022-11-10T17:36:10;71.93;;;31.08;;
7747;SDS011;3918;42.564;23.164;2022-11-10T17:38:40;73.07;;;33.05;;
7747;SDS011;3918;42.564;23.164;2022-11-10T17:41:09;55.53;;;29.45;;
7747;SDS011;3918;42.564;23.164;2022-11-10T17:43:40;66.63;;;32.50;;
7747;SDS011;3918;42.564;23.164;2022-11-10T17:46:08;84.95;;;35.33;;
7747;SDS011;3918;42.564;23.164;2022-11-10T17:48:35;68.03;;;32.20;;
7747;SDS011;3918;42.564;23.164;2022-11-10T17:51:02;78.13;;;35.63;;
7747;SDS011;3918;42.564;23.164;2022-11-10T17:53:30;67.60;;;29.33;;
7747;SDS011;3918;42.564;23.164;2022-11-10T17:55:57;68.07;;;31.95;;
7747;SDS011;3918;42.564;23.164;2022-11-10T17:58:24;59.50;;;28.08;;
7747;SDS011;3918;42.564;23.164;2022-11-10T18:00:50;56.40;;;29.33;;
7747;SDS011;3918;42.564;23.164;2022-11-10T18:03:19;54.30;;;28.23;;
7747;SDS011;3918;42.564;23.164;2022-11-10T18:05:47;50.60;;;27.45;;
7747;SDS011;3918;42.564;23.164;2022-11-10T18:08:15;51.22;;;27.77;;
7747;SDS011;3918;42.564;23.164;2022-11-10T18:10:45;54.25;;;29.35;;
7747;SDS011;3918;42.564;23.164;2022-11-10T18:13:13;51.60;;;31.15;;
7747;SDS011;3918;42.564;23.164;2022-11-10T18:15:40;56.75;;;29.60;;
7747;SDS011;3918;42.564;23.164;2022-11-10T18:18:11;56.08;;;31.75;;
7747;SDS011;3918;42.564;23.164;2022-11-10T18:20:40;59.75;;;31.90;;
7747;SDS011;3918;42.564;23.164;2022-11-10T18:23:07;41.90;;;22.85;;
7747;SDS011;3918;42.564;23.164;2022-11-10T18:25:36;45.53;;;24.15;;
7747;SDS011;3918;42.564;23.164;2022-11-10T18:28:04;48.80;;;25.35;;
7747;SDS011;3918;42.564;23.164;2022-11-10T18:30:31;47.17;;;25.52;;
7747;SDS011;3918;42.564;23.164;2022-11-10T18:32:59;49.03;;;26.80;;
7747;SDS011;3918;42.564;23.164;2022-11-10T18:35:27;61.10;;;32.23;;
7747;SDS011;3918;42.564;23.164;2022-11-10T18:37:55;52.28;;;29.45;;
7747;SDS011;3918;42.564;23.164;2022-11-10T18:40:23;54.25;;;29.33;;
7747;SDS011;3918;42.564;23.164;2022-11-10T18:42:50;57.95;;;29.60;;
7747;SDS011;3918;42.564;23.164;2022-11-10T18:45:20;56.05;;;29.13;;
7747;SDS011;3918;42.564;23.164;2022-11-10T18:47:47;58.63;;;29.35;;
7747;SDS011;3918;42.564;23.164;2022-11-10T18:50:14;55.33;;;30.00;;
7747;SDS011;3918;42.564;23.164;2022-11-10T18:52:41;52.90;;;30.02;;
7747;SDS011;3918;42.564;23.164;2022-11-10T18:55:09;57.38;;;29.77;;
7747;SDS011;3918;42.564;23.164;2022-11-10T18:57:37;54.55;;;29.50;;
7747;SDS011;3918;42.564;23.164;2022-11-10T19:00:04;59.20;;;27.58;;
7747;SDS011;3918;42.564;23.164;2022-11-10T19:02:32;68.47;;;31.27;;
7747;SDS011;3918;42.564;23.164;2022-11-10T19:04:59;59.90;;;30.88;;
7747;SDS011;3918;42.564;23.164;2022-11-10T19:07:27;63.58;;;34.03;;
7747;SDS011;3918;42.564;23.164;2022-11-10T19:09:54;56.15;;;29.27;;
7747;SDS011;3918;42.564;23.164;2022-11-10T19:12:22;62.72;;;29.98;;
7747;SDS011;3918;42.564;23.164;2022-11-10T19:14:48;56.28;;;30.13;;
7747;SDS011;3918;42.564;23.164;2022-11-10T19:17:16;75.60;;;38.33;;
7747;SDS011;3918;42.564;23.164;2022-11-10T19:19:43;67.10;;;35.65;;
7747;SDS011;3918;42.564;23.164;2022-11-10T19:22:10;72.78;;;33.75;;
7747;SDS011;3918;42.564;23.164;2022-11-10T19:24:37;65.85;;;31.92;;
7747;SDS011;3918;42.564;23.164;2022-11-10T19:27:07;61.15;;;31.25;;
7747;SDS011;3918;42.564;23.164;2022-11-10T19:29:35;55.60;;;32.00;;
7747;SDS011;3918;42.564;23.164;2022-11-10T19:32:02;61.17;;;31.48;;
7747;SDS011;3918;42.564;23.164;2022-11-10T19:34:29;52.28;;;29.10;;
7747;SDS011;3918;42.564;23.164;2022-11-10T19:36:56;49.85;;;27.40;;
7747;SDS011;3918;42.564;23.164;2022-11-10T19:39:23;34.88;;;22.05;;
7747;SDS011;3918;42.564;23.164;2022-11-10T19:41:50;61.83;;;35.72;;
7747;SDS011;3918;42.564;23.164;2022-11-10T19:44:16;72.32;;;40.70;;
7747;SDS011;3918;42.564;23.164;2022-11-10T19:46:45;70.25;;;40.08;;
7747;SDS011;3918;42.564;23.164;2022-11-10T19:49:12;77.32;;;44.33;;
7747;SDS011;3918;42.564;23.164;2022-11-10T19:51:39;59.88;;;33.17;;
7747;SDS011;3918;42.564;23.164;2022-11-10T19:54:05;49.65;;;30.75;;
7747;SDS011;3918;42.564;23.164;2022-11-10T19:56:33;40.78;;;23.42;;
7747;SDS011;3918;42.564;23.164;2022-11-10T19:59:00;45.88;;;23.77;;
